Airfield :
LOGIN :

Register | Disclaimer

   EN    FR    IT 

 










Legend :    VFR   Marginal VFR   IFR   Intensive IFR   Very Intensive IFR
Visi :
Ceiling :
>= 8 km
>= 3000ft
5 to 8 km
1000 to 3000 ft
1500m to 5 km
500 to 1000 ft
800 to 1500m
200 to 500 ft
< 800m
< 200 ft
Symbols :   Thunderstorms  Fog  Heavy snow  Heavy precipitations  Wind > 20 kt
SIGMETs :     Misc.  Thunderstorms  Icing  Turbulence  Mountain Waves  Volcanic Ashes







- Airport Elevation : 978 ft
- IATA code : LNZ


LOWL - Linz

CURRENT METAR :
  • 261020Z 28004KT 210V330 9999 FEW060 30/19 Q1024 NOSIG

EXPIRED METARs :
  • 260950Z VRB03KT 9999 FEW060 30/20 Q1024 NOSIG
  • 260920Z VRB01KT CAVOK 29/20 Q1024 NOSIG
  • 260850Z VRB02KT CAVOK 29/19 Q1024 NOSIG
  • 260820Z VRB02KT CAVOK 27/20 Q1024 NOSIG
  • 260750Z VRB02KT CAVOK 27/19 Q1024 NOSIG

TAF TAF LOWL
Valid from the 26 at 06:00 until the 27 at 06:00 UTC


260515Z 2606/2706 VRB02KT CAVOK TX36/2615Z TN21/2704Z
BECMG 2612/2614 28005KT
No reported NOTAMs for that airfield.



MET'MAP, your aeronautical weather chart ! - Copyright ORBIFLY December 2007 - Disclaimer

ORBIFLY MET'MAP TEAM :

Programming & Development : Alexandra Zaïnal
Concept & Development : Baudouin d'Aumeries
Co-Development & Prog : Marc-Olivier Méhu
Technical & hardware support : Manuel Goepfert

Contact : metmap@orbifly.com




SOURCES & CREDITS :

   NOAA